createdAt,value
2019-04-25T00:04:11.982Z,7.00
2019-04-25T00:09:18.923Z,7.50
2019-04-25T00:14:23.674Z,6.50
2019-04-25T00:19:27.703Z,7.00
2019-04-25T00:24:39.706Z,7.25
2019-04-25T00:29:45.018Z,8.80
2019-04-25T00:34:49.269Z,7.00
2019-04-25T00:39:53.533Z,7.50
2019-04-25T00:44:57.371Z,6.00
2019-04-25T00:50:02.337Z,6.75
2019-04-25T00:55:06.773Z,6.60
2019-04-25T01:00:36.651Z,6.40
2019-04-25T01:05:40.424Z,5.80
2019-04-25T01:10:44.402Z,5.25
2019-04-25T01:15:48.505Z,5.80
2019-04-25T01:20:53.589Z,5.00
2019-04-25T01:25:58.149Z,6.00
2019-04-25T01:31:03.770Z,5.80
2019-04-25T01:36:19.389Z,6.00
2019-04-25T01:41:41.046Z,5.00
2019-04-25T01:46:45.758Z,5.00
2019-04-25T01:51:50.317Z,5.00
2019-04-25T01:56:55.289Z,5.60
2019-04-25T02:02:00.091Z,5.20
2019-04-25T02:07:04.452Z,4.80
2019-04-25T02:12:16.898Z,5.00
2019-04-25T02:17:20.975Z,5.00
2019-04-25T02:22:24.726Z,3.80
2019-04-25T02:27:28.484Z,4.00
2019-04-25T02:32:36.623Z,3.00
2019-04-25T02:37:37.791Z,5.00
2019-04-25T02:42:43.735Z,4.50
2019-04-25T02:48:09.252Z,4.20
2019-04-25T02:53:27.744Z,4.20
2019-04-25T02:58:31.523Z,4.00
2019-04-25T03:03:35.296Z,3.60
2019-04-25T03:08:39.066Z,4.00
2019-04-25T03:13:44.101Z,4.00
2019-04-25T03:19:08.246Z,3.75
2019-04-25T03:24:16.363Z,3.20
2019-04-25T03:29:18.131Z,4.00
2019-04-25T03:34:24.580Z,3.50
2019-04-25T03:39:27.769Z,4.25
2019-04-25T03:44:31.545Z,3.00
2019-04-25T03:49:35.414Z,3.00
2019-04-25T03:54:39.247Z,3.00
2019-04-25T03:59:43.693Z,3.20
2019-04-25T04:04:47.721Z,2.25
2019-04-25T04:09:51.547Z,3.00
2019-04-25T04:14:55.359Z,2.20
2019-04-25T04:20:17.019Z,3.00
2019-04-25T04:25:21.631Z,3.00
2019-04-25T04:30:25.423Z,2.00
2019-04-25T04:35:29.286Z,2.40
2019-04-25T04:40:35.907Z,2.00
2019-04-25T04:45:38.693Z,2.00
2019-04-25T04:50:43.458Z,2.00
2019-04-25T04:55:47.450Z,2.00
2019-04-25T05:00:51.267Z,1.00
2019-04-25T05:06:26.588Z,1.80
2019-04-25T05:11:30.345Z,1.00
2019-04-25T05:16:34.233Z,1.40
2019-04-25T05:21:38.034Z,1.00
2019-04-25T05:26:41.844Z,1.50
2019-04-25T05:31:51.449Z,1.00
2019-04-25T05:36:55.287Z,1.00
2019-04-25T05:42:16.291Z,1.20
2019-04-25T05:47:21.350Z,0.00
2019-04-25T05:52:26.243Z,0.00
2019-04-25T05:57:30.136Z,0.00
2019-04-25T06:02:34.130Z,0.00
2019-04-25T06:07:38.026Z,0.00
2019-04-25T06:12:58.557Z,0.80
2019-04-25T06:18:25.211Z,0.00
2019-04-25T06:23:54.321Z,2.00
2019-04-25T06:28:59.847Z,0.75
2019-04-25T06:34:04.588Z,0.00
2019-04-25T06:39:08.514Z,0.00
2019-04-25T06:44:29.380Z,0.00
2019-04-25T06:49:37.330Z,0.00
2019-04-25T06:54:41.344Z,0.00
2019-04-25T06:59:45.103Z,1.00
2019-04-25T07:04:51.440Z,0.00
2019-04-25T07:09:54.370Z,1.00
2019-04-25T07:14:58.190Z,0.00
2019-04-25T07:20:03.829Z,0.00
2019-04-25T07:25:07.777Z,0.00
2019-04-25T07:30:50.192Z,0.00
2019-04-25T07:35:48.639Z,0.00
2019-04-25T07:40:53.729Z,0.00
2019-04-25T07:45:57.652Z,0.00
2019-04-25T07:51:01.417Z,0.00
2019-04-25T07:56:05.251Z,0.00
2019-04-25T08:01:10.387Z,0.00
2019-04-25T08:06:14.146Z,0.00
2019-04-25T08:11:17.975Z,0.00
2019-04-25T08:16:23.425Z,0.00
2019-04-25T08:21:27.175Z,0.00
2019-04-25T08:26:31.207Z,0.00
2019-04-25T08:31:36.289Z,0.00
2019-04-25T08:36:40.436Z,0.00
2019-04-25T08:41:45.656Z,0.00
2019-04-25T08:46:49.881Z,0.00
2019-04-25T08:51:55.733Z,0.00
2019-04-25T08:57:00.957Z,0.00
2019-04-25T09:02:23.699Z,0.00
2019-04-25T09:07:27.468Z,0.00
2019-04-25T09:12:31.256Z,0.00
2019-04-25T09:17:35.821Z,0.00
2019-04-25T09:22:40.616Z,0.00
2019-04-25T09:27:45.803Z,0.00
2019-04-25T09:32:49.887Z,0.00
2019-04-25T09:37:53.778Z,0.00
2019-04-25T09:42:57.566Z,0.00
2019-04-25T09:48:07.728Z,0.00
2019-04-25T09:53:21.896Z,0.00
2019-04-25T09:58:25.193Z,0.00
2019-04-25T10:03:29.144Z,0.00
2019-04-25T10:08:34.289Z,0.00
2019-04-25T10:13:38.526Z,0.00
2019-04-25T10:18:43.693Z,0.00
2019-04-25T10:23:48.228Z,0.00
2019-04-25T10:28:53.011Z,0.00
2019-04-25T10:33:56.762Z,0.00
2019-04-25T10:39:07.225Z,0.00
2019-04-25T10:44:06.007Z,0.00
2019-04-25T10:49:09.801Z,0.00
2019-04-25T10:54:14.589Z,0.00
2019-04-25T10:59:18.533Z,0.00
2019-04-25T11:04:31.287Z,0.00
2019-04-25T11:09:35.754Z,0.00
2019-04-25T11:14:39.983Z,0.00
2019-04-25T11:19:44.666Z,0.00
2019-04-25T11:24:48.653Z,0.00
2019-04-25T11:29:54.827Z,0.00
2019-04-25T11:34:57.971Z,0.00
2019-04-25T11:40:17.801Z,0.00
2019-04-25T11:45:21.544Z,0.00
2019-04-25T11:50:25.295Z,0.00
2019-04-25T11:55:29.060Z,0.00
2019-04-25T12:00:33.923Z,0.00
2019-04-25T12:05:37.673Z,0.00
2019-04-25T12:10:41.495Z,0.00
2019-04-25T12:15:47.108Z,0.00
2019-04-25T12:20:51.061Z,0.00
2019-04-25T12:25:55.305Z,0.00
2019-04-25T12:30:59.175Z,0.00
2019-04-25T12:36:02.970Z,0.00
2019-04-25T12:41:06.832Z,0.00
2019-04-25T12:46:22.556Z,0.00
2019-04-25T12:51:26.306Z,0.00
2019-04-25T12:56:30.149Z,0.00
2019-04-25T13:01:34.100Z,0.00
2019-04-25T13:06:37.862Z,0.00
2019-04-25T13:11:43.359Z,0.00
2019-04-25T13:16:47.270Z,0.00
2019-04-25T13:21:51.080Z,0.00
2019-04-25T13:27:01.346Z,0.00
2019-04-25T13:32:15.718Z,0.00
2019-04-25T13:37:19.489Z,0.00
2019-04-25T13:42:23.371Z,0.00
2019-04-25T13:47:29.247Z,0.00
2019-04-25T13:52:33.523Z,0.00
2019-04-25T13:57:38.135Z,0.00
2019-04-25T14:02:41.905Z,0.00
2019-04-25T14:07:45.669Z,0.00
2019-04-25T14:12:49.461Z,0.00
2019-04-25T14:18:10.934Z,0.00
2019-04-25T14:23:15.490Z,0.00
2019-04-25T14:28:19.287Z,0.00
2019-04-25T14:33:25.294Z,0.00
2019-04-25T14:38:28.531Z,0.00
2019-04-25T14:43:32.323Z,0.00
2019-04-25T14:48:36.199Z,0.00
2019-04-25T14:53:40.018Z,0.00
2019-04-25T14:58:45.641Z,0.00
2019-04-25T15:03:49.578Z,0.00
2019-04-25T15:08:53.372Z,0.00
2019-04-25T15:13:57.137Z,0.00
2019-04-25T15:19:00.883Z,0.00
2019-04-25T15:24:04.760Z,0.00
2019-04-25T15:29:08.664Z,0.00
2019-04-25T15:34:12.981Z,0.00
2019-04-25T15:39:33.227Z,0.00
2019-04-25T15:45:02.146Z,0.00
2019-04-25T15:50:08.508Z,0.00
2019-04-25T15:55:12.267Z,0.00
2019-04-25T16:00:20.893Z,0.00
2019-04-25T16:05:26.448Z,2.00
2019-04-25T16:10:30.367Z,1.00
2019-04-25T16:15:34.153Z,3.00
2019-04-25T16:20:37.938Z,3.00
2019-04-25T16:25:41.683Z,4.00
2019-04-25T16:30:45.742Z,3.00
2019-04-25T16:35:49.510Z,3.00
2019-04-25T16:40:53.247Z,1.50
2019-04-25T16:45:57.076Z,2.00
2019-04-25T16:51:00.831Z,3.00
2019-04-25T16:56:05.464Z,3.00
2019-04-25T17:01:11.747Z,3.00
2019-04-25T17:06:15.600Z,1.75
2019-04-25T17:11:19.756Z,2.00
2019-04-25T17:16:54.948Z,1.00
2019-04-25T17:21:58.890Z,1.75
2019-04-25T17:27:02.761Z,1.00
2019-04-25T17:32:25.860Z,0.00
2019-04-25T17:37:52.184Z,0.00
2019-04-25T17:42:55.960Z,0.00
2019-04-25T17:47:59.733Z,0.00
2019-04-25T17:53:03.632Z,0.00
2019-04-25T17:58:07.478Z,0.00
2019-04-25T18:03:12.433Z,0.00
2019-04-25T18:08:16.276Z,0.20
2019-04-25T18:13:20.058Z,0.00
2019-04-25T18:18:41.418Z,0.00
2019-04-25T18:24:03.192Z,0.00
2019-04-25T18:29:10.457Z,0.00
2019-04-25T18:34:25.415Z,0.00
2019-04-25T18:39:33.595Z,0.00
2019-04-25T18:44:37.899Z,0.00
2019-04-25T18:49:43.347Z,0.00
2019-04-25T18:55:03.905Z,0.00
2019-04-25T19:00:25.925Z,0.00
2019-04-25T19:06:01.016Z,0.00
2019-04-25T19:11:06.281Z,0.00
2019-04-25T19:16:10.031Z,0.00
2019-04-25T19:21:13.933Z,0.00
2019-04-25T19:26:17.760Z,0.00
2019-04-25T19:31:21.686Z,1.00
2019-04-25T19:36:25.454Z,0.50
2019-04-25T19:41:49.767Z,0.25
2019-04-25T19:46:53.573Z,0.75
2019-04-25T19:51:57.420Z,1.00
2019-04-25T19:57:01.209Z,1.00
2019-04-25T20:02:09.888Z,0.00
2019-04-25T20:07:25.551Z,1.00
2019-04-25T20:12:32.848Z,1.00
2019-04-25T20:17:36.592Z,0.50
2019-04-25T20:22:40.494Z,0.00
2019-04-25T20:27:45.365Z,0.20
2019-04-25T20:32:50.194Z,0.00
2019-04-25T20:37:54.091Z,1.00
2019-04-25T20:42:57.933Z,0.00
2019-04-25T20:48:01.815Z,0.00
2019-04-25T20:53:05.592Z,0.50
2019-04-25T20:58:09.344Z,0.25
2019-04-25T21:03:13.522Z,0.00
2019-04-25T21:08:17.334Z,0.60
2019-04-25T21:13:28.609Z,0.00
2019-04-25T21:18:36.286Z,0.00
2019-04-25T21:23:40.038Z,0.00
2019-04-25T21:28:43.797Z,0.00
2019-04-25T21:33:47.573Z,0.00
2019-04-25T21:38:52.888Z,0.00
2019-04-25T21:44:01.098Z,0.00
2019-04-25T21:49:05.905Z,0.00
2019-04-25T21:54:09.664Z,0.25
2019-04-25T21:59:13.699Z,0.25
2019-04-25T22:04:17.766Z,0.00
2019-04-25T22:09:22.877Z,0.00
2019-04-25T22:14:26.977Z,0.00
2019-04-25T22:19:31.055Z,0.00
2019-04-25T22:24:35.178Z,0.50
2019-04-25T22:29:42.250Z,0.00
2019-04-25T22:34:52.795Z,0.00
2019-04-25T22:39:56.653Z,0.00
2019-04-25T22:45:00.525Z,0.00
2019-04-25T22:50:04.811Z,0.00
2019-04-25T22:55:08.916Z,0.00
2019-04-25T23:00:22.594Z,0.00
2019-04-25T23:05:30.259Z,0.00
2019-04-25T23:10:34.288Z,0.00
2019-04-25T23:15:38.049Z,0.00
2019-04-25T23:20:42.129Z,0.00
2019-04-25T23:26:14.228Z,0.00
2019-04-25T23:31:22.717Z,0.00
2019-04-25T23:36:26.541Z,0.00
2019-04-25T23:41:30.299Z,0.00
2019-04-25T23:46:34.045Z,0.00
2019-04-25T23:51:37.803Z,0.00
2019-04-25T23:56:41.556Z,0.00
